createdAt,value
2018-09-28T00:01:20.658Z,100030.00
2018-09-28T00:03:25.149Z,100029.00
2018-09-28T00:05:29.688Z,100037.00
2018-09-28T00:07:34.292Z,100046.00
2018-09-28T00:09:38.766Z,100037.00
2018-09-28T00:11:43.349Z,100018.00
2018-09-28T00:13:47.860Z,100028.00
2018-09-28T00:15:52.363Z,100033.00
2018-09-28T00:17:56.884Z,100020.00
2018-09-28T00:20:01.357Z,100020.00
2018-09-28T00:22:05.849Z,100028.00
2018-09-28T00:24:10.333Z,100029.00
2018-09-28T00:26:14.834Z,100028.00
2018-09-28T00:28:19.443Z,100027.00
2018-09-28T00:30:23.927Z,100028.00
2018-09-28T00:32:28.423Z,100027.00
2018-09-28T00:34:32.943Z,100025.00
2018-09-28T00:36:37.418Z,100017.00
2018-09-28T00:38:42.576Z,100015.00
2018-09-28T00:40:47.095Z,100008.00
2018-09-28T00:42:51.604Z,100003.00
2018-09-28T00:44:56.135Z,100008.00
2018-09-28T00:47:00.591Z,100008.00
2018-09-28T00:49:05.111Z,100002.00
2018-09-28T00:51:09.654Z,100004.00
2018-09-28T00:53:14.124Z,100005.00
2018-09-28T00:55:18.655Z,99998.00
2018-09-28T00:57:23.123Z,99992.00
2018-09-28T00:59:27.622Z,100000.00
2018-09-28T01:01:32.522Z,100002.00
2018-09-28T01:03:37.071Z,100003.00
2018-09-28T01:05:41.611Z,100003.00
2018-09-28T01:07:46.115Z,100002.00
2018-09-28T01:09:50.599Z,100010.00
2018-09-28T01:11:55.126Z,100006.00
2018-09-28T01:13:59.654Z,99999.00
2018-09-28T01:16:04.162Z,100004.00
2018-09-28T01:18:08.834Z,99999.00
2018-09-28T01:20:13.294Z,100007.00
2018-09-28T01:22:17.806Z,100001.00
2018-09-28T01:24:22.350Z,99996.00
2018-09-28T01:26:26.855Z,100004.00
2018-09-28T01:28:31.374Z,99991.00
2018-09-28T01:30:36.078Z,99995.00
2018-09-28T01:32:40.545Z,99990.00
2018-09-28T01:34:45.024Z,100003.00
2018-09-28T01:36:49.508Z,99999.00
2018-09-28T01:38:54.010Z,99988.00
2018-09-28T01:40:58.503Z,99990.00
2018-09-28T01:43:03.110Z,99997.00
2018-09-28T01:45:07.629Z,99995.00
2018-09-28T01:47:12.200Z,99982.00
2018-09-28T01:49:16.687Z,99981.00
2018-09-28T01:51:21.207Z,99989.00
2018-09-28T01:53:25.726Z,99988.00
2018-09-28T01:55:30.223Z,99984.00
2018-09-28T01:57:34.702Z,99984.00
2018-09-28T01:59:39.234Z,99984.00
2018-09-28T02:01:43.806Z,99990.00
2018-09-28T02:03:48.314Z,99989.00
2018-09-28T02:05:52.935Z,99998.00
2018-09-28T02:07:57.439Z,100006.00
2018-09-28T02:10:01.943Z,100007.00
2018-09-28T02:12:06.532Z,100010.00
2018-09-28T02:14:11.009Z,100004.00
2018-09-28T02:16:16.143Z,100004.00
2018-09-28T02:18:20.621Z,100003.00
2018-09-28T02:20:25.124Z,99993.00
2018-09-28T02:22:29.636Z,100002.00
2018-09-28T02:24:34.619Z,100002.00
2018-09-28T02:26:39.134Z,100001.00
2018-09-28T02:28:43.944Z,100006.00
2018-09-28T02:30:48.470Z,100004.00
2018-09-28T02:32:53.015Z,99998.00
2018-09-28T02:34:57.542Z,100011.00
2018-09-28T02:37:02.052Z,99998.00
2018-09-28T02:39:08.337Z,100004.00
2018-09-28T02:41:12.914Z,100005.00
2018-09-28T02:43:17.373Z,100002.00
2018-09-28T02:45:22.267Z,100001.00
2018-09-28T02:47:26.775Z,99994.00
2018-09-28T02:49:31.254Z,99994.00
2018-09-28T02:51:35.844Z,99996.00
2018-09-28T02:53:40.391Z,99990.00
2018-09-28T02:55:45.881Z,99998.00
2018-09-28T02:57:50.479Z,99997.00
2018-09-28T02:59:55.031Z,99993.00
2018-09-28T03:01:59.526Z,99986.00
2018-09-28T03:04:04.029Z,99988.00
2018-09-28T03:06:08.533Z,99990.00
2018-09-28T03:08:13.080Z,99984.00
2018-09-28T03:10:17.594Z,99989.00
2018-09-28T03:12:22.083Z,99982.00
2018-09-28T03:14:26.588Z,99978.00
2018-09-28T03:16:31.210Z,99986.00
2018-09-28T03:18:35.893Z,99975.00
2018-09-28T03:20:40.437Z,99978.00
2018-09-28T03:22:45.558Z,99975.00
2018-09-28T03:24:50.043Z,99982.00
2018-09-28T03:26:55.072Z,99979.00
2018-09-28T03:28:59.599Z,99973.00
2018-09-28T03:31:04.167Z,99986.00
2018-09-28T03:33:08.776Z,99988.00
2018-09-28T03:35:13.280Z,99983.00
2018-09-28T03:37:17.990Z,99996.00
2018-09-28T03:39:22.514Z,99988.00
2018-09-28T03:41:26.955Z,99981.00
2018-09-28T03:43:31.491Z,99978.00
2018-09-28T03:45:35.990Z,99986.00
2018-09-28T03:47:42.494Z,99982.00
2018-09-28T03:49:46.967Z,99986.00
2018-09-28T03:51:51.450Z,99991.00
2018-09-28T03:53:56.689Z,99989.00
2018-09-28T03:56:01.221Z,99992.00
2018-09-28T03:58:05.859Z,99991.00
2018-09-28T04:00:11.402Z,99992.00
2018-09-28T04:02:17.054Z,99989.00
2018-09-28T04:04:21.568Z,99994.00
2018-09-28T04:06:26.087Z,99992.00
2018-09-28T04:08:30.556Z,99995.00
2018-09-28T04:10:35.011Z,99998.00
2018-09-28T04:12:39.558Z,100007.00
2018-09-28T04:14:44.087Z,100003.00
2018-09-28T04:16:48.887Z,99997.00
2018-09-28T04:18:53.374Z,99991.00
2018-09-28T04:20:57.865Z,99999.00
2018-09-28T04:23:02.296Z,99998.00
2018-09-28T04:25:06.853Z,100004.00
2018-09-28T04:27:11.387Z,100007.00
2018-09-28T04:29:15.853Z,100010.00
2018-09-28T04:31:20.327Z,100007.00
2018-09-28T04:33:24.847Z,100016.00
2018-09-28T04:35:29.300Z,100017.00
2018-09-28T04:37:34.025Z,100016.00
2018-09-28T04:39:38.447Z,100022.00
2018-09-28T04:41:42.910Z,100014.00
2018-09-28T04:43:47.409Z,100015.00
2018-09-28T04:45:52.195Z,100009.00
2018-09-28T04:47:56.646Z,100013.00
2018-09-28T04:50:01.208Z,100015.00
2018-09-28T04:52:05.912Z,100027.00
2018-09-28T04:54:10.369Z,100022.00
2018-09-28T04:56:14.859Z,100029.00
2018-09-28T04:58:19.322Z,100017.00
2018-09-28T05:00:23.887Z,100021.00
2018-09-28T05:02:28.385Z,100024.00
2018-09-28T05:04:32.846Z,100022.00
2018-09-28T05:06:38.451Z,100013.00
2018-09-28T05:08:43.006Z,100020.00
2018-09-28T05:10:47.455Z,100017.00
2018-09-28T05:12:51.911Z,100031.00
2018-09-28T05:14:56.407Z,100025.00
2018-09-28T05:17:00.910Z,100034.00
2018-09-28T05:19:05.491Z,100030.00
2018-09-28T05:21:09.967Z,100039.00
2018-09-28T05:23:14.466Z,100039.00
2018-09-28T05:25:19.048Z,100042.00
2018-09-28T05:27:23.487Z,100045.00
2018-09-28T05:29:27.943Z,100046.00
2018-09-28T05:31:32.505Z,100054.00
2018-09-28T05:33:37.111Z,100066.00
2018-09-28T05:35:41.635Z,100059.00
2018-09-28T05:37:46.135Z,100064.00
2018-09-28T05:39:50.587Z,100059.00
2018-09-28T05:41:55.051Z,100055.00
2018-09-28T05:43:59.601Z,100063.00
2018-09-28T05:46:04.094Z,100065.00
2018-09-28T05:48:08.605Z,100078.00
2018-09-28T05:50:13.332Z,100076.00
2018-09-28T05:52:17.810Z,100056.00
2018-09-28T05:54:22.287Z,100063.00
2018-09-28T05:56:26.731Z,100077.00
2018-09-28T05:58:36.584Z,100073.00
2018-09-28T06:01:46.818Z,100078.00
2018-09-28T06:03:56.375Z,100093.00
2018-09-28T06:06:02.883Z,100098.00
2018-09-28T06:08:07.624Z,100111.00
2018-09-28T06:10:12.190Z,100106.00
2018-09-28T06:12:16.727Z,100106.00
2018-09-28T06:14:21.187Z,100101.00
2018-09-28T06:16:25.827Z,100108.00
2018-09-28T06:18:30.377Z,100104.00
2018-09-28T06:20:34.862Z,100105.00
2018-09-28T06:22:39.338Z,100105.00
2018-09-28T06:24:43.872Z,100111.00
2018-09-28T06:26:48.311Z,100115.00
2018-09-28T06:28:52.792Z,100112.00
2018-09-28T06:30:57.211Z,100118.00
2018-09-28T06:33:01.704Z,100115.00
2018-09-28T06:35:06.273Z,100112.00
2018-09-28T06:37:10.839Z,100122.00
2018-09-28T06:39:15.318Z,100108.00
2018-09-28T06:41:19.874Z,100112.00
2018-09-28T06:43:24.376Z,100128.00
2018-09-28T06:45:28.888Z,100138.00
2018-09-28T06:47:33.402Z,100144.00
2018-09-28T06:49:37.973Z,100138.00
2018-09-28T06:51:42.430Z,100148.00
2018-09-28T06:53:46.983Z,100144.00
2018-09-28T06:55:52.615Z,100145.00
2018-09-28T06:57:57.093Z,100149.00
2018-09-28T07:00:01.566Z,100149.00
2018-09-28T07:02:06.067Z,100147.00
2018-09-28T07:04:10.647Z,100147.00
2018-09-28T07:06:16.119Z,100156.00
2018-09-28T07:08:20.542Z,100161.00
2018-09-28T07:10:24.986Z,100164.00
2018-09-28T07:12:29.452Z,100168.00
2018-09-28T07:14:33.914Z,100164.00
2018-09-28T07:16:38.414Z,100169.00
2018-09-28T07:18:43.110Z,100170.00
2018-09-28T07:20:48.167Z,100176.00
2018-09-28T07:22:53.464Z,100190.00
2018-09-28T07:24:57.961Z,100187.00
2018-09-28T07:27:02.407Z,100193.00
2018-09-28T07:29:06.969Z,100193.00
2018-09-28T07:31:11.402Z,100195.00
2018-09-28T07:33:15.925Z,100204.00
2018-09-28T07:35:20.460Z,100195.00
2018-09-28T07:37:25.042Z,100199.00
2018-09-28T07:39:29.583Z,100197.00
2018-09-28T07:41:34.226Z,100199.00
2018-09-28T07:43:38.747Z,100200.00
2018-09-28T07:45:43.212Z,100205.00
2018-09-28T07:47:47.702Z,100211.00
2018-09-28T07:49:53.279Z,100207.00
2018-09-28T07:51:57.828Z,100215.00
2018-09-28T07:54:02.298Z,100215.00
2018-09-28T07:56:06.734Z,100211.00
2018-09-28T07:58:11.171Z,100217.00
2018-09-28T08:00:16.195Z,100210.00
2018-09-28T08:02:20.644Z,100206.00
2018-09-28T08:04:25.115Z,100216.00
2018-09-28T08:06:29.532Z,100221.00
2018-09-28T08:08:34.917Z,100231.00
2018-09-28T08:10:39.420Z,100229.00
2018-09-28T08:12:44.842Z,100239.00
2018-09-28T08:14:49.288Z,100245.00
2018-09-28T08:16:54.838Z,100247.00
2018-09-28T08:18:59.331Z,100247.00
2018-09-28T08:21:03.887Z,100242.00
2018-09-28T08:23:08.346Z,100239.00
2018-09-28T08:25:12.822Z,100254.00
2018-09-28T08:27:17.350Z,100254.00
2018-09-28T08:29:21.815Z,100257.00
2018-09-28T08:31:26.319Z,100258.00
2018-09-28T08:33:30.786Z,100265.00
2018-09-28T08:35:35.643Z,100267.00
2018-09-28T08:37:40.243Z,100266.00
2018-09-28T08:39:44.731Z,100262.00
2018-09-28T08:41:49.201Z,100283.00
2018-09-28T08:43:53.696Z,100283.00
2018-09-28T08:45:58.165Z,100277.00
2018-09-28T08:48:02.698Z,100280.00
2018-09-28T08:50:07.227Z,100278.00
2018-09-28T08:52:11.695Z,100282.00
2018-09-28T08:54:16.210Z,100286.00
2018-09-28T08:56:20.710Z,100288.00
2018-09-28T08:58:25.350Z,100289.00
2018-09-28T09:00:29.802Z,100296.00
2018-09-28T09:02:35.327Z,100298.00
2018-09-28T09:04:39.807Z,100305.00
2018-09-28T09:06:44.279Z,100303.00
2018-09-28T09:08:49.440Z,100305.00
2018-09-28T09:10:53.976Z,100314.00
2018-09-28T09:12:58.428Z,100331.00
2018-09-28T09:15:03.527Z,100311.00
2018-09-28T09:17:07.976Z,100317.00
2018-09-28T09:19:12.488Z,100309.00
2018-09-28T09:21:16.979Z,100320.00
2018-09-28T09:23:21.538Z,100326.00
2018-09-28T09:25:26.019Z,100336.00
2018-09-28T09:27:31.305Z,100334.00
2018-09-28T09:29:35.822Z,100332.00
2018-09-28T09:31:40.317Z,100331.00
2018-09-28T09:33:44.862Z,100333.00
2018-09-28T09:35:49.542Z,100325.00
2018-09-28T09:37:53.994Z,100334.00
2018-09-28T09:39:58.611Z,100330.00
2018-09-28T09:42:03.087Z,100333.00
2018-09-28T09:44:07.638Z,100330.00
2018-09-28T09:46:12.130Z,100335.00
2018-09-28T09:48:16.631Z,100332.00
2018-09-28T09:50:21.227Z,100334.00
2018-09-28T09:52:25.834Z,100326.00
2018-09-28T09:54:30.316Z,100333.00
2018-09-28T09:56:34.806Z,100337.00
2018-09-28T09:58:39.240Z,100342.00
2018-09-28T10:00:49.820Z,100348.00
2018-09-28T10:02:59.354Z,100348.00
2018-09-28T10:05:04.699Z,100356.00
2018-09-28T10:07:09.212Z,100362.00
2018-09-28T10:09:14.615Z,100352.00
2018-09-28T10:11:19.143Z,100361.00
2018-09-28T10:13:24.566Z,100371.00
2018-09-28T10:15:29.092Z,100372.00
2018-09-28T10:17:33.543Z,100367.00
2018-09-28T10:19:38.138Z,100368.00
2018-09-28T10:21:42.630Z,100368.00
2018-09-28T10:23:47.123Z,100370.00
2018-09-28T10:25:51.625Z,100372.00
2018-09-28T10:27:56.131Z,100380.00
2018-09-28T10:30:00.598Z,100379.00
2018-09-28T10:32:05.101Z,100374.00
2018-09-28T10:34:09.687Z,100375.00
2018-09-28T10:36:14.177Z,100379.00
2018-09-28T10:38:18.674Z,100384.00
2018-09-28T10:40:23.227Z,100376.00
2018-09-28T10:42:27.631Z,100378.00
2018-09-28T10:44:32.091Z,100376.00
2018-09-28T10:46:36.615Z,100371.00
2018-09-28T10:48:41.034Z,100372.00
2018-09-28T10:50:45.580Z,100367.00
2018-09-28T10:52:50.172Z,100372.00
2018-09-28T10:54:54.572Z,100366.00
2018-09-28T10:56:59.058Z,100369.00
2018-09-28T10:59:03.532Z,100371.00
2018-09-28T11:01:08.119Z,100372.00
2018-09-28T11:03:12.693Z,100374.00
2018-09-28T11:05:17.174Z,100375.00
2018-09-28T11:07:21.674Z,100383.00
2018-09-28T11:09:26.767Z,100386.00
2018-09-28T11:11:31.280Z,100382.00
2018-09-28T11:13:36.059Z,100381.00
2018-09-28T11:15:40.556Z,100384.00
2018-09-28T11:17:45.003Z,100386.00
2018-09-28T11:19:49.539Z,100388.00
2018-09-28T11:21:53.998Z,100393.00
2018-09-28T11:23:58.496Z,100388.00
2018-09-28T11:26:05.162Z,100377.00
2018-09-28T11:28:09.682Z,100384.00
2018-09-28T11:30:14.120Z,100380.00
2018-09-28T11:32:18.610Z,100379.00
2018-09-28T11:34:23.220Z,100389.00
2018-09-28T11:36:28.067Z,100391.00
2018-09-28T11:38:32.570Z,100391.00
2018-09-28T11:40:37.133Z,100391.00
2018-09-28T11:42:42.083Z,100388.00
2018-09-28T11:44:46.564Z,100394.00
2018-09-28T11:46:51.078Z,100390.00
2018-09-28T11:48:55.547Z,100390.00
2018-09-28T11:50:59.990Z,100398.00
2018-09-28T11:53:04.503Z,100383.00
2018-09-28T11:55:09.006Z,100389.00
2018-09-28T11:57:14.429Z,100391.00
2018-09-28T11:59:18.890Z,100383.00
2018-09-28T12:01:23.353Z,100379.00
2018-09-28T12:03:27.893Z,100383.00
2018-09-28T12:05:32.334Z,100373.00
2018-09-28T12:07:36.787Z,100384.00
2018-09-28T12:09:41.276Z,100380.00
2018-09-28T12:11:45.741Z,100379.00
2018-09-28T12:13:50.220Z,100386.00
2018-09-28T12:15:54.681Z,100390.00
2018-09-28T12:17:59.192Z,100391.00
2018-09-28T12:20:03.639Z,100390.00
2018-09-28T12:22:08.714Z,100382.00
2018-09-28T12:24:13.218Z,100381.00
2018-09-28T12:26:18.599Z,100376.00
2018-09-28T12:28:23.098Z,100384.00
2018-09-28T12:30:29.474Z,100373.00
2018-09-28T12:32:34.058Z,100381.00
2018-09-28T12:34:38.525Z,100378.00
2018-09-28T12:36:43.471Z,100387.00
2018-09-28T12:38:47.923Z,100377.00
2018-09-28T12:40:55.110Z,100371.00
2018-09-28T12:43:00.784Z,100378.00
2018-09-28T12:45:07.463Z,100375.00
2018-09-28T12:47:11.880Z,100373.00
2018-09-28T12:49:17.357Z,100379.00
2018-09-28T12:51:22.088Z,100376.00
2018-09-28T12:53:27.750Z,100374.00
2018-09-28T12:55:32.274Z,100391.00
2018-09-28T12:57:36.856Z,100388.00
2018-09-28T12:59:41.312Z,100384.00
2018-09-28T13:01:47.664Z,100386.00
2018-09-28T13:03:52.319Z,100383.00
2018-09-28T13:05:57.004Z,100395.00
2018-09-28T13:08:01.479Z,100391.00
2018-09-28T13:10:09.745Z,100394.00
2018-09-28T13:12:15.404Z,100390.00
2018-09-28T13:14:19.909Z,100395.00
2018-09-28T13:16:27.598Z,100391.00
2018-09-28T13:18:32.145Z,100389.00
2018-09-28T13:20:38.109Z,100394.00
2018-09-28T13:22:42.618Z,100395.00
2018-09-28T13:24:47.170Z,100384.00
2018-09-28T13:26:51.706Z,100381.00
2018-09-28T13:28:56.342Z,100373.00
2018-09-28T13:31:00.998Z,100383.00
2018-09-28T13:33:05.520Z,100374.00
2018-09-28T13:35:10.226Z,100380.00
2018-09-28T13:37:15.549Z,100376.00
2018-09-28T13:39:20.062Z,100371.00
2018-09-28T13:41:24.595Z,100372.00
2018-09-28T13:43:29.147Z,100364.00
2018-09-28T13:45:34.437Z,100365.00
2018-09-28T13:47:38.831Z,100367.00
2018-09-28T13:49:43.364Z,100349.00
2018-09-28T13:51:47.875Z,100361.00
2018-09-28T13:53:52.495Z,100356.00
2018-09-28T13:55:58.039Z,100352.00
2018-09-28T13:58:02.506Z,100354.00
2018-09-28T14:00:07.988Z,100362.00
2018-09-28T14:02:13.210Z,100350.00
2018-09-28T14:04:17.692Z,100368.00
2018-09-28T14:06:22.801Z,100365.00
2018-09-28T14:08:28.413Z,100364.00
2018-09-28T14:10:32.910Z,100377.00
2018-09-28T14:12:37.545Z,100378.00
2018-09-28T14:14:42.021Z,100377.00
2018-09-28T14:16:47.405Z,100375.00
2018-09-28T14:18:51.891Z,100373.00
2018-09-28T14:20:56.910Z,100365.00
2018-09-28T14:23:01.413Z,100370.00
2018-09-28T14:25:05.905Z,100376.00
2018-09-28T14:27:10.697Z,100380.00
2018-09-28T14:29:15.947Z,100372.00
2018-09-28T14:31:20.543Z,100383.00
2018-09-28T14:33:25.066Z,100384.00
2018-09-28T14:35:29.559Z,100383.00
2018-09-28T14:37:34.014Z,100390.00
2018-09-28T14:39:38.540Z,100385.00
2018-09-28T14:41:43.053Z,100381.00
2018-09-28T14:43:48.322Z,100382.00
2018-09-28T14:45:52.886Z,100380.00
2018-09-28T14:47:57.356Z,100377.00
2018-09-28T14:50:01.826Z,100393.00
2018-09-28T14:52:06.444Z,100383.00
2018-09-28T14:54:11.076Z,100379.00
2018-09-28T14:56:15.596Z,100387.00
2018-09-28T14:58:21.066Z,100386.00
2018-09-28T15:00:25.749Z,100396.00
2018-09-28T15:02:30.318Z,100392.00
2018-09-28T15:04:34.840Z,100392.00
2018-09-28T15:06:39.636Z,100388.00
2018-09-28T15:08:44.077Z,100398.00
2018-09-28T15:10:48.618Z,100400.00
2018-09-28T15:12:53.007Z,100388.00
2018-09-28T15:14:57.454Z,100388.00
2018-09-28T15:17:02.438Z,100390.00
2018-09-28T15:19:07.220Z,100393.00
2018-09-28T15:21:12.897Z,100394.00
2018-09-28T15:23:17.430Z,100397.00
2018-09-28T15:25:21.930Z,100395.00
2018-09-28T15:27:26.339Z,100394.00
2018-09-28T15:29:30.877Z,100393.00
2018-09-28T15:31:36.080Z,100393.00
2018-09-28T15:33:40.495Z,100400.00
2018-09-28T15:35:45.564Z,100402.00
2018-09-28T15:37:51.158Z,100395.00
2018-09-28T15:39:55.719Z,100401.00
2018-09-28T15:42:01.536Z,100404.00
2018-09-28T15:44:08.115Z,100403.00
2018-09-28T15:46:13.134Z,100403.00
2018-09-28T15:48:18.311Z,100403.00
2018-09-28T15:50:24.111Z,100414.00
2018-09-28T15:52:28.568Z,100406.00
2018-09-28T15:54:33.081Z,100412.00
2018-09-28T15:56:38.298Z,100408.00
2018-09-28T15:58:42.744Z,100398.00
2018-09-28T16:00:47.210Z,100404.00
2018-09-28T16:02:51.676Z,100399.00
2018-09-28T16:04:56.244Z,100410.00
2018-09-28T16:07:00.749Z,100401.00
2018-09-28T16:09:07.315Z,100413.00
2018-09-28T16:11:12.098Z,100408.00
2018-09-28T16:13:17.475Z,100412.00
2018-09-28T16:15:21.986Z,100416.00
2018-09-28T16:17:26.475Z,100420.00
2018-09-28T16:19:31.014Z,100417.00
2018-09-28T16:21:35.558Z,100419.00
2018-09-28T16:23:40.020Z,100431.00
2018-09-28T16:25:44.568Z,100427.00
2018-09-28T16:27:49.038Z,100441.00
2018-09-28T16:29:54.680Z,100435.00
2018-09-28T16:31:59.182Z,100444.00
2018-09-28T16:34:03.646Z,100443.00
2018-09-28T16:36:08.248Z,100443.00
2018-09-28T16:38:12.711Z,100460.00
2018-09-28T16:40:17.265Z,100451.00
2018-09-28T16:42:21.759Z,100455.00
2018-09-28T16:44:26.224Z,100454.00
2018-09-28T16:46:30.686Z,100452.00
2018-09-28T16:48:35.167Z,100459.00
2018-09-28T16:50:39.694Z,100457.00
2018-09-28T16:52:44.675Z,100462.00
2018-09-28T16:54:49.128Z,100461.00
2018-09-28T16:56:54.798Z,100465.00
2018-09-28T16:58:59.251Z,100474.00
2018-09-28T17:01:03.754Z,100466.00
2018-09-28T17:03:08.759Z,100474.00
2018-09-28T17:05:13.236Z,100467.00
2018-09-28T17:07:17.734Z,100486.00
2018-09-28T17:09:22.244Z,100493.00
2018-09-28T17:11:26.708Z,100495.00
2018-09-28T17:13:31.132Z,100493.00
2018-09-28T17:15:35.623Z,100496.00
2018-09-28T17:17:40.088Z,100505.00
2018-09-28T17:19:44.529Z,100505.00
2018-09-28T17:21:49.036Z,100517.00
2018-09-28T17:23:53.454Z,100511.00
2018-09-28T17:25:57.992Z,100525.00
2018-09-28T17:28:02.469Z,100527.00
2018-09-28T17:30:07.602Z,100523.00
2018-09-28T17:32:12.090Z,100530.00
2018-09-28T17:34:16.560Z,100534.00
2018-09-28T17:36:21.111Z,100535.00
2018-09-28T17:38:25.531Z,100547.00
2018-09-28T17:40:30.014Z,100550.00
2018-09-28T17:42:34.702Z,100549.00
2018-09-28T17:44:39.151Z,100540.00
2018-09-28T17:46:43.611Z,100537.00
2018-09-28T17:48:48.105Z,100544.00
2018-09-28T17:50:52.587Z,100548.00
2018-09-28T17:52:57.210Z,100562.00
2018-09-28T17:55:01.666Z,100562.00
2018-09-28T17:57:06.386Z,100561.00
2018-09-28T17:59:13.331Z,100562.00
2018-09-28T18:01:17.870Z,100559.00
2018-09-28T18:03:22.557Z,100557.00
2018-09-28T18:05:27.017Z,100564.00
2018-09-28T18:07:31.534Z,100567.00
2018-09-28T18:09:36.069Z,100573.00
2018-09-28T18:11:40.618Z,100578.00
2018-09-28T18:13:45.229Z,100579.00
2018-09-28T18:15:49.767Z,100580.00
2018-09-28T18:17:54.477Z,100588.00
2018-09-28T18:19:59.093Z,100589.00
2018-09-28T18:22:03.595Z,100589.00
2018-09-28T18:24:08.235Z,100590.00
2018-09-28T18:26:12.719Z,100600.00
2018-09-28T18:28:17.314Z,100592.00
2018-09-28T18:30:21.852Z,100595.00
2018-09-28T18:32:26.371Z,100588.00
2018-09-28T18:34:30.791Z,100594.00
2018-09-28T18:36:35.285Z,100601.00
2018-09-28T18:38:39.758Z,100604.00
2018-09-28T18:40:44.271Z,100605.00
2018-09-28T18:42:48.899Z,100620.00
2018-09-28T18:44:53.351Z,100621.00
2018-09-28T18:46:58.065Z,100618.00
2018-09-28T18:49:03.130Z,100631.00
2018-09-28T18:51:07.583Z,100633.00
2018-09-28T18:53:12.064Z,100625.00
2018-09-28T18:55:16.871Z,100634.00
2018-09-28T18:57:21.418Z,100634.00
2018-09-28T18:59:26.103Z,100645.00
2018-09-28T19:01:30.566Z,100642.00
2018-09-28T19:03:35.047Z,100632.00
2018-09-28T19:05:39.631Z,100647.00
2018-09-28T19:07:44.242Z,100647.00
2018-09-28T19:09:48.774Z,100651.00
2018-09-28T19:11:53.254Z,100652.00
2018-09-28T19:13:57.775Z,100657.00
2018-09-28T19:20:40.766Z,100660.00
2018-09-28T19:22:45.247Z,100663.00
2018-09-28T19:24:49.706Z,100662.00
2018-09-28T19:26:54.307Z,100664.00
2018-09-28T19:28:58.830Z,100667.00
2018-09-28T19:31:03.302Z,100663.00
2018-09-28T19:33:08.442Z,100662.00
2018-09-28T19:35:13.186Z,100667.00
2018-09-28T19:37:17.674Z,100661.00
2018-09-28T19:39:22.130Z,100657.00
2018-09-28T19:41:26.606Z,100667.00
2018-09-28T19:43:31.324Z,100677.00
2018-09-28T19:45:35.792Z,100664.00
2018-09-28T19:47:40.263Z,100674.00
2018-09-28T19:49:44.759Z,100677.00
2018-09-28T19:51:49.236Z,100677.00
2018-09-28T19:53:53.859Z,100682.00
2018-09-28T19:55:58.314Z,100683.00
2018-09-28T19:58:02.850Z,100690.00
2018-09-28T20:00:08.314Z,100693.00
2018-09-28T20:02:12.823Z,100687.00
2018-09-28T20:04:17.303Z,100690.00
2018-09-28T20:06:21.853Z,100699.00
2018-09-28T20:08:26.318Z,100699.00
2018-09-28T20:10:30.794Z,100689.00
2018-09-28T20:12:35.243Z,100700.00
2018-09-28T20:14:39.803Z,100698.00
2018-09-28T20:16:45.517Z,100705.00
2018-09-28T20:18:50.034Z,100717.00
2018-09-28T20:20:54.487Z,100713.00
2018-09-28T20:22:58.947Z,100717.00
2018-09-28T20:25:03.431Z,100721.00
2018-09-28T20:27:08.069Z,100719.00
2018-09-28T20:29:12.530Z,100717.00
2018-09-28T20:31:17.368Z,100722.00
2018-09-28T20:33:21.792Z,100721.00
2018-09-28T20:35:26.274Z,100716.00
2018-09-28T20:37:30.750Z,100723.00
2018-09-28T20:39:35.267Z,100723.00
2018-09-28T20:41:39.708Z,100736.00
2018-09-28T20:43:44.155Z,100732.00
2018-09-28T20:45:48.679Z,100744.00
2018-09-28T20:47:53.154Z,100746.00
2018-09-28T20:49:57.604Z,100743.00
2018-09-28T20:52:02.087Z,100751.00
2018-09-28T20:54:07.479Z,100747.00
2018-09-28T20:56:11.927Z,100747.00
2018-09-28T20:58:16.439Z,100745.00
2018-09-28T21:00:20.925Z,100743.00
2018-09-28T21:02:25.390Z,100746.00
2018-09-28T21:04:30.033Z,100754.00
2018-09-28T21:06:34.478Z,100754.00
2018-09-28T21:08:38.929Z,100754.00
2018-09-28T21:10:43.990Z,100753.00
2018-09-28T21:12:49.251Z,100758.00
2018-09-28T21:14:53.750Z,100752.00
2018-09-28T21:16:58.302Z,100763.00
2018-09-28T21:19:02.820Z,100756.00
2018-09-28T21:21:07.291Z,100758.00
2018-09-28T21:23:11.843Z,100773.00
2018-09-28T21:25:16.306Z,100766.00
2018-09-28T21:27:20.706Z,100766.00
2018-09-28T21:29:25.199Z,100766.00
2018-09-28T21:31:29.602Z,100759.00
2018-09-28T21:33:34.107Z,100767.00
2018-09-28T21:35:38.595Z,100769.00
2018-09-28T21:37:43.087Z,100766.00
2018-09-28T21:39:47.591Z,100766.00
2018-09-28T21:41:52.068Z,100767.00
2018-09-28T21:43:56.657Z,100768.00
2018-09-28T21:46:01.184Z,100769.00
2018-09-28T21:48:05.618Z,100771.00
2018-09-28T21:50:10.132Z,100777.00
2018-09-28T21:52:14.584Z,100771.00
2018-09-28T21:54:19.000Z,100775.00
2018-09-28T21:56:23.507Z,100763.00
2018-09-28T21:58:27.979Z,100773.00
2018-09-28T22:00:36.766Z,100764.00
2018-09-28T22:02:41.204Z,100773.00
2018-09-28T22:04:45.725Z,100767.00
2018-09-28T22:06:50.204Z,100767.00
2018-09-28T22:08:54.819Z,100770.00
2018-09-28T22:10:59.299Z,100785.00
2018-09-28T22:13:03.838Z,100773.00
2018-09-28T22:15:08.560Z,100778.00
2018-09-28T22:17:13.006Z,100783.00
2018-09-28T22:19:17.583Z,100775.00
2018-09-28T22:21:22.152Z,100777.00
2018-09-28T22:23:26.699Z,100782.00
2018-09-28T22:25:31.305Z,100785.00
2018-09-28T22:27:35.798Z,100782.00
2018-09-28T22:29:40.276Z,100779.00
2018-09-28T22:31:44.826Z,100782.00
2018-09-28T22:33:49.346Z,100783.00
2018-09-28T22:35:54.357Z,100796.00
2018-09-28T22:37:58.860Z,100791.00
2018-09-28T22:40:03.676Z,100794.00
2018-09-28T22:42:08.625Z,100795.00
2018-09-28T22:44:13.192Z,100790.00
2018-09-28T22:46:17.681Z,100788.00
2018-09-28T22:48:22.196Z,100786.00
2018-09-28T22:50:27.506Z,100795.00
2018-09-28T22:52:32.845Z,100786.00
2018-09-28T22:54:37.469Z,100789.00
2018-09-28T22:56:41.951Z,100779.00
2018-09-28T22:58:46.630Z,100779.00
2018-09-28T23:00:52.258Z,100782.00
2018-09-28T23:02:57.323Z,100783.00
2018-09-28T23:05:03.490Z,100785.00
2018-09-28T23:07:08.690Z,100782.00
2018-09-28T23:09:13.272Z,100794.00
2018-09-28T23:11:17.731Z,100787.00
2018-09-28T23:13:22.243Z,100789.00
2018-09-28T23:15:26.715Z,100773.00
2018-09-28T23:17:31.345Z,100774.00
2018-09-28T23:19:36.117Z,100761.00
2018-09-28T23:21:40.624Z,100781.00
2018-09-28T23:23:45.121Z,100782.00
2018-09-28T23:25:49.590Z,100783.00
2018-09-28T23:27:54.035Z,100787.00
2018-09-28T23:29:58.507Z,100787.00
2018-09-28T23:32:03.034Z,100783.00
2018-09-28T23:34:08.074Z,100802.00
2018-09-28T23:36:12.507Z,100795.00
2018-09-28T23:38:18.450Z,100804.00
2018-09-28T23:40:22.890Z,100806.00
2018-09-28T23:42:27.508Z,100807.00
2018-09-28T23:44:31.962Z,100813.00
2018-09-28T23:46:36.479Z,100805.00
2018-09-28T23:48:40.941Z,100805.00
2018-09-28T23:50:45.429Z,100804.00
2018-09-28T23:52:50.667Z,100805.00